Rocas de Santo Domingo, Chile
Current Conditions -  °F | °C
As of 9:00 AM on Tuesday 21 Oct 2014 (Local Time) from SCSN Reporting Station
Haze Haze  
Wind Chill: 55°   Ceiling: 400
Heat Index: 55°   Visibility: 1.2mi
Dew Point: 54°   Wind: 2mph
Humidity: 94%   Direction: NA
Pressure: 29.94"   Gusts: NA
Location:  33.64°S, 71.62°W
Report Text: SCSN 211300Z VRB02KT 2000 BR BKN004 13/12 Q1014
Loading
Personal Weather Stations






























Interactive Weather Map
Tropical Storm Tracking
New forecast layout! Learn more

10-Day Weather Forecast

Advertisements
Track Severe Weather on mobile